Time;durP1;ratioP1;P1;durP2;ratioP2;P2;SDS_P1;SDS_P2;PMS_P1;PMS_P2;Temp;Humidity;BMP_temperature;BMP_pressure;BME280_temperature;BME280_humidity;BME280_pressure;Samples;Min_cycle;Max_cycle;Signal;HPM_P1;HPM_P2
2022/01/21 00:00:25;;;;;;;7.10;2.70;;;0.80;99.90;;;-1.41;76.29;100330.97;10410392;27;97141;-77
2022/01/21 00:05:29;;;;;;;5.57;2.53;;;0.80;99.90;;;-1.40;76.78;100324.84;10398264;27;96620;-77
2022/01/21 00:10:32;;;;;;;8.53;2.63;;;0.80;99.90;;;-1.41;76.73;100320.56;10374510;27;97189;-77
2022/01/21 00:15:35;;;;;;;7.60;2.17;;;0.70;99.90;;;-1.39;77.02;100330.88;10406286;27;96614;-77
2022/01/21 00:31:20;;;;;;;4.20;1.05;;;0.80;99.90;;;-1.22;77.27;100327.31;10395940;27;96545;-76
2022/01/21 00:36:23;;;;;;;6.90;1.93;;;0.80;99.90;;;-1.19;78.15;100338.41;10411438;27;96726;-77
2022/01/21 00:41:30;;;;;;;6.47;2.07;;;0.80;99.90;;;-1.19;79.28;100355.84;10415292;27;96523;-77
2022/01/21 00:46:33;;;;;;;4.20;1.90;;;0.80;99.90;;;-1.27;80.95;100340.59;10414042;27;97790;-77
2022/01/21 00:51:36;;;;;;;5.40;2.33;;;0.70;99.90;;;-1.39;81.73;100318.69;10390935;28;96727;-76
2022/01/21 00:56:39;;;;;;;2.83;1.40;;;0.60;99.90;;;-1.49;82.22;100321.94;10446404;27;96462;-76
2022/01/21 01:01:42;;;;;;;3.27;1.30;;;0.50;99.90;;;-1.56;82.52;100338.84;10411060;27;96548;-76
2022/01/21 01:06:45;;;;;;;4.93;1.77;;;0.50;99.90;;;-1.56;82.69;100359.69;10401142;27;96597;-76
2022/01/21 01:22:21;;;;;;;3.33;1.27;;;0.50;99.90;;;-1.52;82.40;100354.22;10411050;27;96502;-76
2022/01/21 01:27:38;;;;;;;4.90;1.23;;;0.50;99.90;;;-1.53;82.31;100343.88;10425401;27;96550;-77
2022/01/21 01:32:43;;;;;;;2.27;1.10;;;0.50;99.90;;;-1.55;81.48;100343.97;10433665;27;96481;-76
2022/01/21 01:53:50;;;;;;;1.87;1.13;;;0.40;99.90;;;-1.62;80.61;100377.38;10433242;27;97704;-77
2022/01/21 01:58:53;;;;;;;2.73;1.40;;;0.40;99.90;;;-1.60;80.54;100371.22;10434218;27;97413;-77
2022/01/21 02:03:56;;;;;;;3.23;1.00;;;0.40;99.90;;;-1.60;79.90;100392.91;10408197;27;96615;-77
2022/01/21 02:09:00;;;;;;;1.60;0.90;;;0.40;99.90;;;-1.56;79.95;100385.75;10461486;27;96526;-77
2022/01/21 02:14:08;;;;;;;5.60;1.27;;;0.40;99.90;;;-1.57;80.08;100387.50;10396512;28;96779;-78
2022/01/21 02:24:46;;;;;;;3.83;1.23;;;0.40;99.90;;;-1.61;79.98;100375.59;10385543;28;96495;-77
2022/01/21 02:29:52;;;;;;;2.93;1.43;;;0.40;99.90;;;-1.68;80.27;100337.75;10423154;27;97593;-77
2022/01/21 02:34:55;;;;;;;2.23;1.27;;;0.40;99.90;;;-1.76;80.01;100343.41;10433582;27;96587;-77
2022/01/21 02:39:58;;;;;;;3.47;1.10;;;0.30;99.90;;;-1.85;80.28;100338.72;10435469;27;96576;-76
2022/01/21 02:45:05;;;;;;;1.67;1.10;;;0.20;99.90;;;-1.97;80.31;100327.22;10403867;28;96549;-76
2022/01/21 02:50:10;;;;;;;4.73;1.23;;;0.10;99.90;;;-2.06;80.53;100351.16;10404842;27;97041;-76
2022/01/21 02:55:13;;;;;;;4.87;1.50;;;0.10;99.90;;;-2.16;80.82;100368.19;10397519;27;96820;-76
2022/01/21 03:00:16;;;;;;;3.30;1.10;;;0.00;99.90;;;-2.23;82.01;100377.25;10411584;27;96629;-77
2022/01/21 03:05:20;;;;;;;6.53;1.27;;;-0.20;99.90;;;-2.19;83.23;100378.78;10399304;27;96498;-77
2022/01/21 03:10:23;;;;;;;4.07;1.23;;;-0.20;99.90;;;-2.06;83.75;100382.41;10358631;28;96930;-77
2022/01/21 03:15:26;;;;;;;3.57;1.33;;;-0.10;99.90;;;-1.91;83.02;100384.19;10407500;27;96522;-77
2022/01/21 03:20:29;;;;;;;2.60;1.13;;;0.10;99.90;;;-1.81;82.72;100373.25;10380585;28;96641;-77
2022/01/21 03:25:32;;;;;;;1.50;1.00;;;0.10;99.90;;;-1.75;81.49;100360.72;10394650;27;96454;-77
2022/01/21 03:30:35;;;;;;;1.87;1.20;;;0.20;99.90;;;-1.71;79.70;100345.75;10421811;27;96691;-76
2022/01/21 03:35:38;;;;;;;2.20;1.30;;;0.20;99.90;;;-1.74;78.31;100333.75;10384795;28;96620;-77
2022/01/21 03:40:41;;;;;;;5.20;1.53;;;0.20;99.90;;;-1.81;77.36;100342.81;10380741;28;96476;-77
2022/01/21 03:45:44;;;;;;;3.80;1.40;;;0.20;99.90;;;-1.83;76.93;100347.28;10416790;27;96562;-77
2022/01/21 03:50:47;;;;;;;3.97;1.77;;;0.10;99.90;;;-1.87;77.40;100330.16;10392085;27;96576;-77
2022/01/21 03:55:51;;;;;;;5.43;1.23;;;0.10;99.90;;;-1.97;76.82;100345.47;10454523;27;96498;-77
2022/01/21 04:00:55;;;;;;;3.67;1.13;;;0.00;99.90;;;-2.03;76.63;100361.41;10420731;27;96695;-77
2022/01/21 04:05:58;;;;;;;2.10;1.07;;;-0.10;99.90;;;-2.09;76.38;100361.75;10411646;27;96850;-77
2022/01/21 04:11:03;;;;;;;3.87;1.37;;;-0.10;99.90;;;-2.17;76.56;100375.16;10372790;28;96575;-77
2022/01/21 04:16:06;;;;;;;1.80;1.00;;;-0.10;99.90;;;-2.24;76.72;100370.38;10414731;27;97239;-77
2022/01/21 04:21:09;;;;;;;3.23;1.33;;;-0.20;99.90;;;-2.28;76.97;100374.06;10440867;27;96696;-77
2022/01/21 04:26:12;;;;;;;5.30;1.50;;;-0.30;99.90;;;-2.37;77.20;100395.38;10448649;27;96985;-77
2022/01/21 04:31:15;;;;;;;3.57;1.80;;;-0.40;99.90;;;-2.43;77.43;100400.00;10426127;27;96623;-77
2022/01/21 04:36:18;;;;;;;3.07;1.43;;;-0.40;99.90;;;-2.48;77.49;100403.75;10374220;28;97198;-77
2022/01/21 04:41:53;;;;;;;3.23;1.57;;;-0.50;99.90;;;-2.51;77.15;100414.34;10432909;27;98682;-78
2022/01/21 04:52:08;;;;;;;8.47;1.60;;;-0.50;99.90;;;-2.60;77.75;100439.06;10425827;27;96620;-77
2022/01/21 04:57:11;;;;;;;3.70;1.80;;;-0.60;99.90;;;-2.64;77.82;100440.13;10439432;27;96597;-77
2022/01/21 05:02:14;;;;;;;4.97;2.00;;;-0.60;99.90;;;-2.67;77.80;100442.88;10412777;27;96654;-77
2022/01/21 05:07:21;;;;;;;16.10;6.53;;;-0.60;99.90;;;-2.69;77.88;100449.94;10371738;27;96439;-77
2022/01/21 05:12:26;;;;;;;4.90;1.63;;;-0.70;99.90;;;-2.67;77.52;100453.28;10405420;27;96628;-77
2022/01/21 05:17:30;;;;;;;1.93;1.20;;;-0.70;99.90;;;-2.66;77.26;100464.53;10418741;28;96430;-78
2022/01/21 05:22:32;;;;;;;2.20;1.07;;;-0.70;99.90;;;-2.66;77.12;100461.94;10399731;27;96653;-78
2022/01/21 05:27:35;;;;;;;3.70;1.60;;;-0.70;99.90;;;-2.66;77.10;100478.38;10392120;28;97020;-78
2022/01/21 05:32:38;;;;;;;7.50;1.97;;;-0.60;99.90;;;-2.64;76.91;100497.34;10432495;27;97517;-80
2022/01/21 05:37:42;;;;;;;3.73;2.63;;;-0.70;99.90;;;-2.64;76.80;100499.97;10416786;27;96470;-78
2022/01/21 05:42:45;;;;;;;2.60;1.63;;;-0.60;99.90;;;-2.63;76.37;100517.28;10449001;27;96659;-77
2022/01/21 05:47:48;;;;;;;3.90;2.43;;;-0.70;99.90;;;-2.68;76.17;100523.63;10398121;28;96618;-78
2022/01/21 05:52:51;;;;;;;5.90;2.20;;;-0.70;99.90;;;-2.71;76.23;100519.41;10395197;27;96683;-78
2022/01/21 05:57:54;;;;;;;3.90;1.93;;;-0.70;99.90;;;-2.75;75.97;100530.88;10419452;28;96950;-78
2022/01/21 06:02:56;;;;;;;10.53;2.93;;;-0.70;99.90;;;-2.82;75.77;100535.56;10402098;27;96913;-79
2022/01/21 06:08:04;;;;;;;5.37;2.30;;;-0.70;99.90;;;-2.88;75.68;100534.97;10423531;27;96574;-79
2022/01/21 06:13:07;;;;;;;6.00;2.80;;;-0.80;99.90;;;-2.99;76.07;100546.75;10443519;27;96550;-77
2022/01/21 06:18:11;;;;;;;3.23;1.77;;;-0.90;99.90;;;-3.11;76.18;100551.69;10423596;27;96540;-78
2022/01/21 06:23:14;;;;;;;3.70;1.70;;;-1.00;99.90;;;-3.21;76.54;100569.47;10426677;27;96660;-78
2022/01/21 06:28:17;;;;;;;2.17;1.13;;;-1.10;99.90;;;-3.29;76.32;100575.03;10421087;27;96622;-78
2022/01/21 06:33:23;;;;;;;4.40;1.53;;;-1.10;99.90;;;-3.30;75.97;100593.28;10416532;27;96967;-78
2022/01/21 06:38:27;;;;;;;4.00;1.60;;;-1.20;99.90;;;-3.31;75.28;100604.59;10398360;27;96805;-77
2022/01/21 06:43:31;;;;;;;3.83;1.47;;;-1.20;99.90;;;-3.31;74.92;100605.44;10416929;28;96449;-77
2022/01/21 06:48:34;;;;;;;3.67;1.77;;;-1.20;99.90;;;-3.30;74.03;100609.75;10408407;27;96571;-77
2022/01/21 06:53:42;;;;;;;5.53;1.67;;;-1.20;99.90;;;-3.26;73.78;100613.03;10418808;27;96589;-78
2022/01/21 06:58:45;;;;;;;3.43;1.27;;;-1.20;99.90;;;-3.22;73.08;100622.38;10415775;27;96571;-77
2022/01/21 07:03:48;;;;;;;7.23;1.90;;;-1.20;99.90;;;-3.17;73.02;100643.81;10404257;27;97912;-77
2022/01/21 07:08:51;;;;;;;4.30;1.40;;;-1.10;99.90;;;-2.81;72.75;100658.63;10405110;27;96539;-77
2022/01/21 07:13:54;;;;;;;3.50;1.83;;;-1.10;99.90;;;-2.35;71.87;100659.88;10432419;27;96549;-78
2022/01/21 07:18:57;;;;;;;6.23;1.83;;;-0.90;99.90;;;-1.94;69.47;100657.81;10386358;27;96595;-78
2022/01/21 07:24:00;;;;;;;6.63;2.07;;;-0.70;99.90;;;-1.62;68.13;100661.41;10402715;28;96493;-78
2022/01/21 07:29:04;;;;;;;3.70;1.53;;;-0.50;99.90;;;-1.40;67.00;100653.31;10421203;27;97378;-79
2022/01/21 07:34:06;;;;;;;4.23;1.47;;;-0.30;99.90;;;-1.28;65.72;100653.59;10412067;27;96626;-78
2022/01/21 07:39:09;;;;;;;2.50;1.30;;;-0.20;99.90;;;-1.25;65.47;100653.44;10418687;27;96469;-79
2022/01/21 07:44:12;;;;;;;4.53;1.37;;;-0.10;99.90;;;-1.36;65.60;100665.28;10408462;27;96908;-77
2022/01/21 07:49:16;;;;;;;6.33;1.50;;;0.00;99.90;;;-1.22;65.64;100658.47;10395901;28;96654;-77
2022/01/21 07:54:19;;;;;;;5.30;1.50;;;0.00;99.80;;;-1.13;64.67;100635.38;10406799;27;96997;-77
2022/01/21 07:59:22;;;;;;;3.93;1.63;;;0.10;99.50;;;-1.00;64.03;100647.75;10386715;28;98304;-77
2022/01/21 08:04:25;;;;;;;4.33;1.30;;;0.20;99.50;;;-0.93;63.93;100651.69;10442149;27;96640;-77
2022/01/21 08:09:28;;;;;;;3.57;1.40;;;0.20;99.00;;;-0.92;62.96;100635.13;10377663;27;96649;-77
2022/01/21 08:14:31;;;;;;;2.60;1.30;;;0.30;98.40;;;-0.86;63.16;100619.13;10436023;27;96613;-76
2022/01/21 08:19:34;;;;;;;2.17;1.13;;;0.40;98.40;;;-0.79;62.09;100627.44;10442603;27;96624;-77
2022/01/21 08:24:39;;;;;;;3.37;1.20;;;0.50;96.20;;;-0.56;61.74;100656.56;10437392;27;96573;-77
2022/01/21 08:29:41;;;;;;;4.07;1.37;;;0.60;96.30;;;-0.40;61.35;100643.50;10416191;28;96419;-77
2022/01/21 08:34:44;;;;;;;6.13;1.70;;;0.80;96.60;;;-0.22;60.04;100628.53;10400104;27;96643;-77
2022/01/21 08:39:47;;;;;;;5.00;1.20;;;1.00;94.60;;;-0.14;59.38;100649.00;10416041;27;96640;-77
2022/01/21 08:44:50;;;;;;;2.60;1.10;;;1.10;93.20;;;0.02;58.27;100659.41;10438545;27;96542;-77
2022/01/21 08:49:53;;;;;;;3.33;1.20;;;1.30;93.00;;;0.24;57.97;100658.06;10428593;27;96735;-77
2022/01/21 08:54:56;;;;;;;2.57;1.30;;;1.50;92.80;;;0.41;55.81;100677.94;10417688;27;96570;-77
2022/01/21 08:59:59;;;;;;;4.17;1.47;;;1.60;90.40;;;0.29;56.63;100704.81;10458652;27;96541;-77
2022/01/21 09:05:03;;;;;;;41.73;22.67;;;1.60;89.60;;;0.34;56.74;100699.31;10394692;27;96548;-77
2022/01/21 09:10:08;;;;;;;4.50;1.50;;;1.70;88.60;;;0.56;55.90;100717.22;10453489;27;96500;-78
2022/01/21 09:15:11;;;;;;;4.73;1.97;;;1.80;87.90;;;0.65;55.64;100733.19;10433625;27;96689;-76
2022/01/21 09:20:14;;;;;;;3.87;1.67;;;1.90;87.30;;;0.31;55.07;100751.81;10455449;27;96536;-76
2022/01/21 09:25:17;;;;;;;6.60;1.90;;;1.80;83.40;;;0.61;54.92;100746.56;10438607;27;96454;-76
2022/01/21 09:30:20;;;;;;;7.10;2.50;;;2.00;83.30;;;1.16;51.84;100730.13;10462107;27;96495;-76
2022/01/21 09:35:24;;;;;;;3.57;1.53;;;2.40;81.30;;;1.68;52.13;100729.44;10462779;27;97222;-76
2022/01/21 09:40:31;;;;;;;5.03;1.50;;;2.70;80.70;;;2.19;49.85;100722.63;10457717;27;96622;-76
2022/01/21 09:45:36;;;;;;;5.80;1.57;;;3.20;80.00;;;2.66;48.33;100713.34;10420463;27;96655;-78
2022/01/21 09:50:40;;;;;;;5.80;1.50;;;3.60;76.10;;;3.06;48.14;100703.56;10422156;27;96579;-78
2022/01/21 09:55:44;;;;;;;3.57;1.00;;;4.00;73.90;;;2.94;47.70;100694.75;10413955;27;96444;-77
2022/01/21 10:00:47;;;;;;;5.17;1.33;;;4.10;70.90;;;2.69;47.04;100711.34;10444201;27;96486;-77
2022/01/21 10:05:52;;;;;;;10.17;3.17;;;4.00;67.30;;;2.30;47.77;100704.38;10443221;27;96536;-77
2022/01/21 10:10:55;;;;;;;4.40;1.50;;;3.70;69.60;;;1.66;49.17;100705.13;10442086;27;96558;-77
2022/01/21 10:15:58;;;;;;;3.50;1.20;;;3.30;68.60;;;1.20;50.95;100694.94;10451306;27;96618;-77
2022/01/21 10:21:11;;;;;;;6.33;2.17;;;2.90;70.10;;;0.88;52.76;100704.78;10442583;27;96628;-76
2022/01/21 10:26:19;;;;;;;31.13;10.00;;;2.70;72.40;;;0.48;53.87;100710.66;10438282;27;96634;-77
2022/01/21 10:31:24;;;;;;;8.70;2.80;;;2.40;73.30;;;0.11;55.64;100692.81;10417842;28;96791;-77
2022/01/21 10:36:32;;;;;;;3.07;1.30;;;2.10;75.00;;;-0.11;57.39;100717.59;10434336;27;96549;-77
2022/01/21 10:41:39;;;;;;;8.23;2.37;;;1.80;77.10;;;-0.27;58.68;100711.53;10434582;27;96620;-77
2022/01/21 10:46:46;;;;;;;6.80;1.57;;;1.60;80.00;;;-0.45;59.25;100721.25;10442351;27;96450;-77
2022/01/21 10:51:51;;;;;;;20.10;6.07;;;1.50;80.90;;;-0.58;60.65;100705.41;10399401;27;96666;-77
2022/01/21 10:57:14;;;;;;;7.87;2.47;;;1.30;82.30;;;-0.65;61.08;100700.63;10396569;27;98292;-76
2022/01/21 11:02:53;;;;;;;4.13;1.93;;;1.20;84.40;;;-0.69;61.91;100686.03;10394170;27;96596;-77
2022/01/21 11:08:04;;;;;;;4.40;1.93;;;1.20;86.30;;;-0.68;62.96;100691.16;10409524;27;96499;-76
2022/01/21 11:13:13;;;;;;;3.80;1.23;;;1.20;88.50;;;-0.54;61.61;100695.63;10392994;27;96799;-76
2022/01/21 11:18:19;;;;;;;6.83;1.93;;;1.30;87.40;;;-0.54;62.07;100679.97;10417346;27;96585;-75
2022/01/21 11:23:23;;;;;;;3.00;1.73;;;1.30;87.60;;;-0.56;62.09;100658.34;10410730;27;97941;-76
2022/01/21 11:28:49;;;;;;;5.57;3.17;;;1.30;87.30;;;-0.55;62.34;100649.56;10412522;28;96616;-76
2022/01/21 11:33:52;;;;;;;12.53;2.33;;;1.30;88.70;;;-0.41;62.30;100656.66;10413489;27;96475;-76
2022/01/21 11:38:58;;;;;;;6.27;1.67;;;1.40;89.30;;;-0.17;61.55;100649.19;10405613;27;97129;-76
2022/01/21 11:44:03;;;;;;;6.40;1.87;;;1.60;88.40;;;-0.05;60.66;100651.09;10367186;28;96530;-77
2022/01/21 11:49:17;;;;;;;5.27;1.43;;;1.70;86.90;;;-0.04;61.30;100634.47;10375067;28;96714;-77
2022/01/21 11:54:24;;;;;;;5.10;1.90;;;1.80;87.50;;;0.02;60.74;100617.59;10410246;27;97159;-77
2022/01/21 11:59:35;;;;;;;6.73;1.57;;;1.80;87.10;;;0.12;59.94;100610.88;10415776;27;96630;-77
2022/01/21 12:04:48;;;;;;;4.23;1.83;;;1.90;85.90;;;0.10;59.46;100610.13;10448587;27;97612;-76
2022/01/21 12:09:59;;;;;;;7.10;1.80;;;1.90;84.30;;;0.14;59.74;100603.81;10382368;27;96729;-75
2022/01/21 12:15:04;;;;;;;8.37;3.20;;;1.90;85.10;;;0.20;60.22;100599.03;10394551;28;96756;-76
2022/01/21 12:20:09;;;;;;;6.13;2.10;;;2.00;85.60;;;0.32;59.74;100589.63;10431275;27;96693;-77
2022/01/21 12:25:13;;;;;;;8.27;2.20;;;2.10;84.80;;;0.38;59.03;100601.50;10427530;27;96904;-77
2022/01/21 12:30:26;;;;;;;3.33;1.77;;;2.20;84.20;;;0.35;59.36;100591.19;10454216;27;96429;-77
2022/01/21 12:35:31;;;;;;;6.60;1.43;;;2.10;84.40;;;0.30;58.11;100588.88;10437901;27;98204;-78
2022/01/21 12:40:38;;;;;;;5.20;2.00;;;2.10;82.60;;;0.31;59.48;100579.28;10449386;27;96536;-78
2022/01/21 12:46:02;;;;;;;3.77;1.57;;;2.10;83.80;;;0.34;59.07;100572.06;10456074;27;96571;-78
2022/01/21 12:51:17;;;;;;;3.77;1.50;;;2.10;83.20;;;0.34;57.24;100579.06;10430806;27;96478;-77
2022/01/21 12:56:21;;;;;;;3.10;1.37;;;2.20;80.30;;;0.30;57.36;100581.06;10437769;27;96589;-78
2022/01/21 13:01:24;;;;;;;5.47;2.40;;;2.10;81.50;;;0.21;58.00;100587.66;10404928;27;96849;-75
2022/01/21 13:06:50;;;;;;;99.17;36.67;;;2.10;81.70;;;0.18;57.00;100608.75;10404027;28;96636;-76
2022/01/21 13:12:09;;;;;;;21.50;8.20;;;2.00;80.60;;;0.10;56.55;100600.53;10456496;27;96528;-77
2022/01/21 13:17:15;;;;;;;54.40;29.70;;;2.00;79.60;;;0.05;56.57;100594.72;10464070;27;96624;-77
2022/01/21 13:22:29;;;;;;;7.27;2.43;;;1.90;78.70;;;-0.03;56.41;100604.78;10460616;27;96511;-77
2022/01/21 13:27:34;;;;;;;26.23;13.20;;;1.90;78.60;;;-0.11;56.60;100607.03;10410902;27;97124;-77
2022/01/21 13:32:37;;;;;;;10.23;3.93;;;1.80;78.80;;;-0.13;56.41;100608.88;10385249;28;98298;-77
2022/01/21 13:38:15;;;;;;;4.43;1.70;;;1.70;78.30;;;-0.09;56.58;100600.78;10437063;27;96745;-78
2022/01/21 13:43:28;;;;;;;46.90;24.50;;;1.80;78.40;;;-0.08;56.91;100636.41;10408634;28;96721;-78
2022/01/21 13:48:34;;;;;;;48.83;25.37;;;1.80;78.80;;;-0.10;56.95;100642.66;10418943;27;97397;-77
2022/01/21 13:53:40;;;;;;;9.10;5.50;;;1.80;78.70;;;-0.16;56.76;100659.53;10421322;27;97176;-78
2022/01/21 13:58:45;;;;;;;4.87;1.80;;;1.70;78.10;;;-0.24;56.38;100674.81;10402406;27;96982;-77
2022/01/21 14:03:48;;;;;;;4.07;1.70;;;1.70;77.80;;;-0.32;56.09;100688.28;10388243;27;98338;-77
2022/01/21 14:08:57;;;;;;;4.63;1.43;;;1.60;77.60;;;-0.38;55.70;100690.41;10407065;27;96573;-79
2022/01/21 14:14:07;;;;;;;5.20;2.27;;;1.50;77.10;;;-0.41;56.19;100695.81;10409411;27;96644;-78
2022/01/21 14:19:33;;;;;;;4.23;1.20;;;1.50;77.60;;;-0.37;55.77;100687.69;10434780;27;96616;-78
2022/01/21 14:24:43;;;;;;;3.63;1.23;;;1.50;77.60;;;-0.36;56.54;100683.31;10385456;28;96681;-78
2022/01/21 14:29:59;;;;;;;4.83;1.90;;;1.50;77.30;;;-0.36;56.40;100684.19;10371639;27;96668;-77
2022/01/21 14:35:27;;;;;;;3.40;2.53;;;1.50;78.00;;;-0.39;55.80;100668.66;10372890;28;96632;-77
2022/01/21 14:40:43;;;;;;;5.80;2.23;;;1.50;77.10;;;-0.43;55.99;100661.94;10379268;28;96709;-78
2022/01/21 14:46:01;;;;;;;8.03;1.77;;;1.50;76.10;;;-0.48;55.47;100653.53;10402927;28;96585;-77
2022/01/21 14:51:13;;;;;;;5.03;1.77;;;1.50;76.80;;;-0.55;55.20;100652.19;10349781;28;98270;-77
2022/01/21 14:56:25;;;;;;;4.85;1.00;;;1.40;75.50;;;-0.65;53.98;100646.66;10354781;28;96538;-77
2022/01/21 15:01:28;;;;;;;3.93;1.10;;;1.40;73.00;;;-0.71;53.96;100649.59;10354893;28;98297;-77
2022/01/21 15:06:39;;;;;;;6.33;1.30;;;1.30;73.60;;;-0.77;53.99;100644.72;10380684;28;96677;-80
2022/01/21 15:12:10;;;;;;;5.53;1.67;;;1.20;72.20;;;-0.88;53.92;100668.78;10366373;28;97251;-80
2022/01/21 15:17:16;;;;;;;7.23;1.60;;;1.10;72.10;;;-0.95;53.58;100657.00;10360420;28;97312;-80
2022/01/21 15:22:25;;;;;;;4.97;1.33;;;1.10;71.90;;;-1.01;53.15;100646.91;10438169;27;96551;-80
2022/01/21 15:27:28;;;;;;;5.47;1.20;;;1.00;72.10;;;-1.10;53.75;100653.44;10405427;27;97209;-80
2022/01/21 15:32:32;;;;;;;5.30;2.17;;;0.90;72.20;;;-1.17;53.74;100649.47;10365909;27;96569;-81
2022/01/21 15:37:37;;;;;;;6.73;1.70;;;0.80;71.70;;;-1.21;53.54;100634.91;10385330;27;96523;-82
2022/01/21 15:42:43;;;;;;;13.23;4.00;;;0.80;72.20;;;-1.25;54.35;100637.78;10428195;27;97471;-81
2022/01/21 15:47:58;;;;;;;37.70;13.33;;;0.80;72.70;;;-1.43;55.52;100635.22;10372852;27;96757;-82
2022/01/21 15:53:02;;;;;;;16.83;4.50;;;0.70;73.90;;;-1.57;56.33;100642.91;10385061;27;96624;-81
2022/01/21 15:58:05;;;;;;;14.57;4.63;;;0.50;74.90;;;-1.69;56.45;100646.16;10420720;27;96578;-80
2022/01/21 16:03:10;;;;;;;16.20;6.70;;;0.40;75.00;;;-1.76;56.73;100640.41;10401560;27;96551;-81
2022/01/21 16:08:13;;;;;;;10.90;3.00;;;0.40;75.50;;;-1.84;56.67;100652.16;10403670;27;96996;-80
2022/01/21 16:13:16;;;;;;;5.23;1.70;;;0.30;75.50;;;-1.93;56.65;100653.47;10396891;27;97149;-80
2022/01/21 16:18:18;;;;;;;10.93;3.23;;;0.20;75.00;;;-2.02;56.40;100657.38;10384810;27;98307;-80
2022/01/21 16:23:21;;;;;;;11.97;3.13;;;0.10;75.20;;;-2.12;56.00;100656.13;10369222;27;96683;-79
2022/01/21 16:28:28;;;;;;;8.23;2.77;;;0.00;74.80;;;-2.23;56.33;100669.69;10352508;28;97522;-79
2022/01/21 16:33:31;;;;;;;22.10;7.00;;;0.00;75.40;;;-2.27;56.24;100673.38;10385062;27;96698;-77
2022/01/21 16:38:34;;;;;;;13.17;4.43;;;-0.10;75.20;;;-2.25;56.19;100661.13;10412796;27;96597;-77
2022/01/21 16:43:38;;;;;;;8.73;3.23;;;-0.10;75.00;;;-2.27;56.29;100667.31;10421690;27;96563;-78
2022/01/21 16:48:41;;;;;;;4.00;1.70;;;-0.10;75.50;;;-2.30;56.61;100672.66;10420740;27;96547;-77
2022/01/21 16:53:44;;;;;;;5.53;1.90;;;-0.20;75.30;;;-2.27;56.76;100669.94;10396179;28;96875;-77
2022/01/21 16:58:46;;;;;;;5.40;1.67;;;-0.10;76.20;;;-2.20;56.91;100673.91;10422693;27;96524;-77
2022/01/21 17:03:49;;;;;;;4.17;1.83;;;-0.10;76.10;;;-2.16;57.35;100676.31;10383634;27;96631;-78
2022/01/21 17:08:54;;;;;;;5.80;1.80;;;0.00;76.80;;;-2.08;57.62;100670.72;10415680;27;97589;-78
2022/01/21 17:13:57;;;;;;;6.20;1.93;;;0.00;77.20;;;-2.01;57.38;100668.63;10424896;27;96584;-78
2022/01/21 17:19:04;;;;;;;7.80;3.20;;;0.10;76.90;;;-1.94;57.02;100663.03;10400854;27;96518;-77
2022/01/21 17:24:08;;;;;;;4.83;2.40;;;0.10;76.10;;;-1.84;56.14;100657.38;10436948;27;96486;-78
2022/01/21 17:29:12;;;;;;;3.53;1.60;;;0.20;74.80;;;-1.78;55.84;100646.66;10414404;27;96894;-78
2022/01/21 17:34:15;;;;;;;6.50;1.87;;;0.20;74.80;;;-1.80;55.73;100646.72;10426424;27;96478;-77
2022/01/21 17:39:18;;;;;;;13.30;3.33;;;0.20;74.30;;;-1.81;55.78;100647.63;10446910;27;96572;-78
2022/01/21 17:44:21;;;;;;;20.63;5.50;;;0.20;74.60;;;-1.83;55.66;100641.66;10412261;28;96575;-78
2022/01/21 17:49:25;;;;;;;7.40;1.40;;;0.20;74.70;;;-1.86;55.96;100648.78;10394877;27;96531;-78
2022/01/21 17:54:28;;;;;;;5.20;1.53;;;0.20;75.00;;;-1.90;56.53;100653.31;10378672;28;96530;-76
2022/01/21 17:59:31;;;;;;;4.50;1.40;;;0.10;74.60;;;-1.92;56.64;100640.38;10378508;28;96447;-79
2022/01/21 18:04:35;;;;;;;4.70;1.50;;;0.10;75.00;;;-1.92;56.74;100652.53;10425051;27;96499;-77
2022/01/21 18:09:43;;;;;;;5.47;1.30;;;0.10;75.40;;;-1.95;56.95;100658.75;10449295;27;96678;-77
2022/01/21 18:14:46;;;;;;;3.43;1.27;;;0.10;75.80;;;-1.98;57.62;100660.66;10437866;27;96529;-76
2022/01/21 18:19:49;;;;;;;6.57;1.63;;;0.10;76.30;;;-2.02;57.48;100659.16;10398810;27;96661;-79
2022/01/21 18:24:51;;;;;;;6.40;1.80;;;0.00;76.70;;;-2.12;58.29;100668.31;10422785;27;96692;-78
2022/01/21 18:29:55;;;;;;;21.27;6.80;;;0.00;77.40;;;-2.21;58.69;100656.63;10417435;27;96539;-77
2022/01/21 18:34:58;;;;;;;16.33;4.57;;;-0.10;78.00;;;-2.23;59.12;100648.00;10370093;28;97967;-77
2022/01/21 18:40:01;;;;;;;15.07;4.70;;;-0.20;78.30;;;-2.22;59.46;100639.28;10366874;28;97955;-78
2022/01/21 18:45:10;;;;;;;5.63;2.23;;;-0.20;78.90;;;-2.20;59.58;100632.25;10381103;28;96584;-78
2022/01/21 18:50:19;;;;;;;4.70;1.40;;;-0.20;79.60;;;-2.20;60.49;100637.47;10378678;28;98127;-78
2022/01/21 18:55:24;;;;;;;5.73;2.07;;;-0.20;80.70;;;-2.16;60.97;100641.56;10365140;28;97209;-78
2022/01/21 19:00:27;;;;;;;6.13;2.10;;;-0.20;82.00;;;-2.15;61.10;100625.06;10390188;28;96683;-78
2022/01/21 19:05:33;;;;;;;4.47;1.90;;;-0.20;82.50;;;-2.21;61.66;100627.97;10374838;28;96645;-78
2022/01/21 19:10:37;;;;;;;4.50;1.70;;;-0.20;83.10;;;-2.28;62.41;100614.41;10390005;28;96570;-76
2022/01/21 19:15:40;;;;;;;4.10;1.60;;;-0.30;84.00;;;-2.32;63.50;100607.69;10355094;28;96576;-76
2022/01/21 19:20:44;;;;;;;4.43;1.30;;;-0.30;85.70;;;-2.36;64.65;100595.72;10358205;28;97176;-76
2022/01/21 19:30:57;;;;;;;5.40;1.43;;;-0.40;90.80;;;-2.50;69.93;100612.03;10375546;28;96707;-76
2022/01/21 19:36:04;;;;;;;5.53;1.73;;;-0.50;95.70;;;-2.50;72.11;100619.81;10391688;28;96471;-76
2022/01/21 19:41:07;;;;;;;4.43;1.87;;;-0.50;98.50;;;-2.53;73.40;100626.94;10402902;27;97388;-76
2022/01/21 19:46:12;;;;;;;4.47;1.70;;;-0.50;99.90;;;-2.55;74.80;100650.44;10362239;28;96579;-76
2022/01/21 19:51:15;;;;;;;5.63;2.03;;;-0.60;99.90;;;-2.56;75.34;100646.16;10393841;28;96581;-76
2022/01/21 19:56:24;;;;;;;4.60;1.80;;;-0.60;99.90;;;-2.54;76.17;100659.06;10398226;28;96573;-78
2022/01/21 20:01:41;;;;;;;6.50;1.30;;;-0.50;99.90;;;-2.50;76.85;100658.03;10392409;27;96591;-77
2022/01/21 20:12:05;;;;;;;5.93;1.93;;;-0.50;99.90;;;-2.36;77.01;100666.00;10392734;27;96495;-78
2022/01/21 20:17:09;;;;;;;5.33;2.23;;;-0.40;99.90;;;-2.29;76.60;100661.34;10416822;27;96580;-77
2022/01/21 20:22:12;;;;;;;5.27;2.53;;;-0.40;99.90;;;-2.25;76.22;100662.88;10386715;27;97672;-76
2022/01/21 20:27:15;;;;;;;5.97;2.37;;;-0.30;99.90;;;-2.24;76.01;100657.59;10420467;27;96443;-77
2022/01/21 20:32:23;;;;;;;8.10;2.70;;;-0.30;99.90;;;-2.26;75.80;100653.38;10388625;27;96854;-76
2022/01/21 20:37:27;;;;;;;5.33;2.80;;;-0.30;99.90;;;-2.30;76.26;100650.06;10447721;27;96799;-77
2022/01/21 20:42:30;;;;;;;4.57;2.30;;;-0.30;99.90;;;-2.35;75.86;100659.88;10423649;27;96584;-78
2022/01/21 20:47:33;;;;;;;6.40;2.70;;;-0.30;99.90;;;-2.37;76.14;100663.47;10419661;27;96715;-81
2022/01/21 20:52:37;;;;;;;8.47;2.60;;;-0.40;99.90;;;-2.32;76.73;100648.47;10372449;28;97606;-82
2022/01/21 20:57:40;;;;;;;6.47;2.70;;;-0.30;99.90;;;-2.29;76.52;100669.97;10385401;27;97294;-78
2022/01/21 21:02:44;;;;;;;6.23;3.23;;;-0.40;99.90;;;-2.25;75.85;100655.91;10395395;28;96611;-77
2022/01/21 21:07:47;;;;;;;7.13;2.90;;;-0.30;99.90;;;-2.25;75.54;100649.84;10358966;28;96607;-78
2022/01/21 21:12:50;;;;;;;6.27;2.67;;;-0.30;99.90;;;-2.26;74.94;100656.84;10384016;27;96606;-78
2022/01/21 21:18:00;;;;;;;5.67;2.30;;;-0.30;99.90;;;-2.34;74.77;100652.91;10391665;27;96545;-77
2022/01/21 22:49:14;;;;;;;10.93;2.00;;;-0.30;99.90;;;-2.28;70.16;100635.25;10420051;27;98347;-76
2022/01/21 23:04:53;;;;;;;2.27;1.40;;;-0.30;99.90;;;-2.37;68.83;100619.22;10436947;27;97231;-77
2022/01/21 23:09:56;;;;;;;8.17;1.57;;;-0.40;99.40;;;-2.31;68.11;100609.34;10358918;28;96454;-77
2022/01/21 23:15:06;;;;;;;3.30;1.30;;;-0.30;98.80;;;-2.29;67.51;100602.28;10408551;27;96918;-77
2022/01/21 23:20:11;;;;;;;8.00;1.57;;;-0.30;98.10;;;-2.26;67.38;100585.69;10419123;27;96636;-76
2022/01/21 23:25:20;;;;;;;5.00;1.60;;;-0.30;97.90;;;-2.26;67.13;100581.34;10458967;27;96459;-77
2022/01/21 23:30:27;;;;;;;6.63;1.77;;;-0.30;97.60;;;-2.22;66.97;100571.59;10408857;27;96632;-77
2022/01/21 23:35:33;;;;;;;2.60;1.47;;;-0.30;97.00;;;-2.20;66.29;100565.41;10392479;27;96637;-77
2022/01/21 23:40:39;;;;;;;4.50;1.80;;;-0.20;97.00;;;-2.23;66.59;100556.91;10427422;27;96575;-77